Archival Weather

Tokyo Intl

Tokyo, Japan (RJTT)

Report from: Friday, September 22, 2023 6:30 PM JST
Current time: Saturday, March 2, 2024 6:14 PM JST

Current weather – Weather history – Daily summaries
Weather forecast

Present weatherRain showers, mist
Temperature24.0°C (75.2°F)
Dew point23.0°C (73.4°F)
Winds 12 kts (6.2 m/s, 13.8 mph) Northeast (50°)
Visibility2.5 mi. (4 km)
Clouds Few clouds 700 ft. (213 m)
Scattered clouds 1,500 ft. (457 m)
Ceiling: Broken clouds 3,000 ft. (914 m)
Altimeter29.91 in.Hg (1013 mB)
Relative humidity94 %
Density altitude1,430 ft. (436 m)
Remarks No significant changes expected in the next two hours
Flight conditions Instrument Meteorological Conditions
Raw dataRJTT 220930Z 05012KT 4000 SHRA BR FEW007 SCT015 BKN030 24/23 Q1013 NOSIG
An error has occurred. This application may no longer respond until reloaded. Reload 🗙